Time;durP1;ratioP1;P1;durP2;ratioP2;P2;SDS_P1;SDS_P2;PMS_P1;PMS_P2;Temp;Humidity;BMP_temperature;BMP_pressure;BME280_temperature;BME280_humidity;BME280_pressure;Samples;Min_cycle;Max_cycle;Signal;HPM_P1;HPM_P2
2021/05/02 00:01:36;;;;;;;24.17;18.77;;;;;;;;;;5056930;28;20209;-85
2021/05/02 00:04:02;;;;;;;22.70;18.70;;;;;;;;;;5057210;28;20642;-85
2021/05/02 00:06:27;;;;;;;21.57;17.83;;;;;;;;;;5057294;28;20674;-85
2021/05/02 00:08:53;;;;;;;22.30;17.53;;;;;;;;;;5057126;28;20222;-85
2021/05/02 00:11:18;;;;;;;23.93;18.97;;;;;;;;;;5057211;28;20204;-85
2021/05/02 00:13:44;;;;;;;22.40;18.10;;;;;;;;;;5057042;28;20164;-85
2021/05/02 00:16:09;;;;;;;22.83;19.03;;;;;;;;;;5057274;28;20200;-85
2021/05/02 00:18:35;;;;;;;26.57;18.90;;;;;;;;;;5057213;28;20250;-85
2021/05/02 00:21:01;;;;;;;24.00;18.67;;;;;;;;;;5056856;28;20179;-85
2021/05/02 00:23:26;;;;;;;24.30;18.37;;;;;;;;;;5056575;28;20168;-85
2021/05/02 00:25:52;;;;;;;22.23;18.07;;;;;;;;;;5055755;28;20172;-85
2021/05/02 00:28:17;;;;;;;21.17;17.17;;;;;;;;;;5057037;28;20171;-85
2021/05/02 00:30:43;;;;;;;21.50;18.17;;;;;;;;;;5056825;28;20172;-85
2021/05/02 00:33:09;;;;;;;23.67;18.07;;;;;;;;;;5056729;28;20203;-85
2021/05/02 00:35:34;;;;;;;21.83;17.20;;;;;;;;;;5057162;28;20229;-85
2021/05/02 00:38:00;;;;;;;22.83;16.73;;;;;;;;;;5056568;28;20634;-85
2021/05/02 00:40:30;;;;;;;23.50;17.67;;;;;;;;;;5056281;28;20164;-85
2021/05/02 00:42:57;;;;;;;23.17;17.83;;;;;;;;;;5056802;28;20160;-85
2021/05/02 00:45:23;;;;;;;20.07;17.77;;;;;;;;;;5055176;28;20187;-85
2021/05/02 00:47:52;;;;;;;19.70;17.50;;;;;;;;;;5055457;28;20168;-85
2021/05/02 00:50:20;;;;;;;23.10;18.00;;;;;;;;;;5055934;28;20227;-85
2021/05/02 00:52:51;;;;;;;21.40;16.80;;;;;;;;;;5055146;28;20218;-85
2021/05/02 00:55:21;;;;;;;21.40;17.40;;;;;;;;;;5056634;28;20510;-85
2021/05/02 00:57:50;;;;;;;20.03;17.07;;;;;;;;;;5056563;28;20238;-85
2021/05/02 01:00:15;;;;;;;22.93;18.30;;;;;;;;;;5055832;28;20605;-85
2021/05/02 01:02:42;;;;;;;21.57;17.03;;;;;;;;;;5056966;28;20236;-85
2021/05/02 01:05:09;;;;;;;20.10;17.50;;;;;;;;;;5056117;28;20168;-85
2021/05/02 01:07:38;;;;;;;19.47;17.37;;;;;;;;;;5056015;28;20254;-85
2021/05/02 01:10:06;;;;;;;19.57;16.07;;;;;;;;;;5056308;28;20247;-85
2021/05/02 01:12:32;;;;;;;19.77;16.33;;;;;;;;;;5055785;28;20258;-85
2021/05/02 01:14:58;;;;;;;19.60;16.13;;;;;;;;;;5056511;28;20168;-85
2021/05/02 01:17:24;;;;;;;18.53;15.73;;;;;;;;;;5055882;28;20183;-85
2021/05/02 01:19:49;;;;;;;18.07;16.03;;;;;;;;;;5055846;28;20259;-86
2021/05/02 01:22:16;;;;;;;20.93;16.47;;;;;;;;;;5055499;28;20263;-85
2021/05/02 01:24:51;;;;;;;19.67;15.60;;;;;;;;;;5055662;28;20193;-85
2021/05/02 01:27:27;;;;;;;19.57;15.80;;;;;;;;;;5055879;28;20175;-85
2021/05/02 01:29:53;;;;;;;18.47;16.33;;;;;;;;;;5055478;28;20171;-85
2021/05/02 01:32:18;;;;;;;22.50;16.97;;;;;;;;;;5055516;28;20226;-85
2021/05/02 01:34:44;;;;;;;19.23;16.27;;;;;;;;;;5055611;28;20176;-85
2021/05/02 01:37:09;;;;;;;20.07;15.73;;;;;;;;;;5055200;28;20537;-84
2021/05/02 01:39:35;;;;;;;18.40;15.87;;;;;;;;;;5055401;28;20172;-84
2021/05/02 01:42:00;;;;;;;18.50;15.97;;;;;;;;;;5055684;28;20187;-84
2021/05/02 01:44:26;;;;;;;18.67;16.10;;;;;;;;;;5055706;28;20255;-84
2021/05/02 01:46:52;;;;;;;20.93;16.90;;;;;;;;;;5055133;28;20191;-84
2021/05/02 01:49:17;;;;;;;18.20;16.20;;;;;;;;;;5055023;28;20693;-85
2021/05/02 01:51:43;;;;;;;17.77;14.70;;;;;;;;;;5055428;28;20200;-85
2021/05/02 01:54:09;;;;;;;18.70;15.77;;;;;;;;;;5055469;28;20172;-85
2021/05/02 01:56:35;;;;;;;19.57;15.30;;;;;;;;;;5055211;28;20179;-85
2021/05/02 01:59:01;;;;;;;19.03;15.47;;;;;;;;;;5055008;28;20176;-85
2021/05/02 02:01:29;;;;;;;17.83;15.93;;;;;;;;;;5055107;28;20175;-85
2021/05/02 02:03:56;;;;;;;17.30;14.90;;;;;;;;;;5054899;28;20167;-85
2021/05/02 02:06:22;;;;;;;17.70;15.80;;;;;;;;;;5054735;28;20176;-85
2021/05/02 02:08:47;;;;;;;18.90;15.97;;;;;;;;;;5054913;28;20221;-85
2021/05/02 02:11:12;;;;;;;18.03;15.43;;;;;;;;;;5054838;28;20677;-85
2021/05/02 02:13:38;;;;;;;20.30;16.27;;;;;;;;;;5054492;28;20168;-85
2021/05/02 02:16:07;;;;;;;17.77;15.87;;;;;;;;;;5054741;28;20168;-85
2021/05/02 02:18:33;;;;;;;19.33;16.03;;;;;;;;;;5054951;28;20168;-85
2021/05/02 02:20:58;;;;;;;18.43;15.50;;;;;;;;;;5054735;28;20172;-85
2021/05/02 02:23:25;;;;;;;17.17;14.60;;;;;;;;;;5054456;28;20175;-85
2021/05/02 02:25:50;;;;;;;18.43;16.00;;;;;;;;;;5054318;28;20529;-85
2021/05/02 02:28:17;;;;;;;18.97;15.40;;;;;;;;;;5054508;28;20255;-85
2021/05/02 02:31:01;;;;;;;20.77;15.50;;;;;;;;;;5054474;28;20251;-85
2021/05/02 02:33:29;;;;;;;19.67;16.23;;;;;;;;;;5054779;28;20172;-85
2021/05/02 02:35:55;;;;;;;18.73;15.80;;;;;;;;;;5054440;28;20207;-85
2021/05/02 02:38:22;;;;;;;16.53;13.63;;;;;;;;;;5054938;28;20168;-85
2021/05/02 02:40:50;;;;;;;17.67;14.97;;;;;;;;;;5054725;28;20172;-85
2021/05/02 02:43:19;;;;;;;17.77;14.93;;;;;;;;;;5054873;28;20209;-85
2021/05/02 02:45:45;;;;;;;17.77;14.63;;;;;;;;;;5053964;28;20164;-85
2021/05/02 02:48:12;;;;;;;19.70;16.07;;;;;;;;;;5053919;28;20194;-85
2021/05/02 02:50:40;;;;;;;18.30;14.67;;;;;;;;;;5054559;28;20687;-85
2021/05/02 02:53:05;;;;;;;19.40;14.87;;;;;;;;;;5054147;28;20612;-85
2021/05/02 02:55:32;;;;;;;18.37;15.83;;;;;;;;;;5053847;28;20164;-85
2021/05/02 02:57:59;;;;;;;17.90;14.87;;;;;;;;;;5054114;28;20195;-85
2021/05/02 03:00:26;;;;;;;17.57;14.27;;;;;;;;;;5053930;28;20729;-84
2021/05/02 03:02:54;;;;;;;17.80;15.17;;;;;;;;;;5053730;28;20176;-85
2021/05/02 03:05:21;;;;;;;18.00;14.50;;;;;;;;;;5054515;28;20172;-85
2021/05/02 03:07:47;;;;;;;18.90;15.17;;;;;;;;;;5053638;28;20349;-85
2021/05/02 03:10:13;;;;;;;18.37;14.57;;;;;;;;;;5053455;28;20665;-85
2021/05/02 03:12:39;;;;;;;17.37;14.73;;;;;;;;;;5053543;28;20215;-85
2021/05/02 03:15:05;;;;;;;16.73;15.00;;;;;;;;;;5053897;28;20660;-85
2021/05/02 03:17:31;;;;;;;18.13;15.03;;;;;;;;;;5053950;28;20172;-85
2021/05/02 03:20:07;;;;;;;21.93;17.10;;;;;;;;;;5053606;28;20172;-85
2021/05/02 03:22:39;;;;;;;22.70;20.30;;;;;;;;;;5054175;28;20179;-85
2021/05/02 03:25:07;;;;;;;29.10;23.67;;;;;;;;;;5053759;28;20559;-85
2021/05/02 03:27:36;;;;;;;30.13;24.30;;;;;;;;;;5053915;28;20180;-85
2021/05/02 03:30:06;;;;;;;32.00;24.77;;;;;;;;;;5053795;28;20172;-85
2021/05/02 03:32:32;;;;;;;28.83;23.67;;;;;;;;;;5053685;28;20298;-85
2021/05/02 03:34:59;;;;;;;31.37;25.30;;;;;;;;;;5053912;28;20226;-85
2021/05/02 03:37:27;;;;;;;26.90;22.23;;;;;;;;;;5054130;28;20176;-85
2021/05/02 03:39:52;;;;;;;29.83;25.27;;;;;;;;;;5053909;28;20176;-85
2021/05/02 03:42:18;;;;;;;37.97;31.07;;;;;;;;;;5053816;28;20168;-85
2021/05/02 03:44:44;;;;;;;34.13;28.30;;;;;;;;;;5053240;28;20175;-85
2021/05/02 03:47:09;;;;;;;31.20;25.60;;;;;;;;;;5053234;28;20168;-85
2021/05/02 03:49:35;;;;;;;24.97;22.03;;;;;;;;;;5053557;28;20314;-84
2021/05/02 03:52:00;;;;;;;22.93;18.60;;;;;;;;;;5053139;28;20284;-84
2021/05/02 03:54:26;;;;;;;21.03;17.00;;;;;;;;;;5053806;28;20167;-85
2021/05/02 03:56:52;;;;;;;21.10;16.70;;;;;;;;;;5053756;28;20241;-85
2021/05/02 03:59:19;;;;;;;19.60;16.83;;;;;;;;;;5053596;28;20252;-85
2021/05/02 04:01:48;;;;;;;20.77;18.13;;;;;;;;;;5053944;28;20666;-85
2021/05/02 04:04:16;;;;;;;23.70;20.53;;;;;;;;;;5053373;28;20176;-85
2021/05/02 04:06:42;;;;;;;21.97;19.60;;;;;;;;;;5053027;28;20172;-85
2021/05/02 04:09:08;;;;;;;24.80;20.93;;;;;;;;;;5053640;28;20179;-86
2021/05/02 04:11:34;;;;;;;27.43;22.80;;;;;;;;;;5053385;28;20204;-85
2021/05/02 04:13:59;;;;;;;28.07;23.43;;;;;;;;;;5053362;28;20519;-85
2021/05/02 04:16:25;;;;;;;26.93;22.73;;;;;;;;;;5053058;28;20243;-86
2021/05/02 04:18:50;;;;;;;29.90;25.80;;;;;;;;;;5052937;28;20634;-85
2021/05/02 04:21:15;;;;;;;29.17;24.77;;;;;;;;;;5053480;28;20200;-85
2021/05/02 04:23:41;;;;;;;29.57;25.63;;;;;;;;;;5056628;28;20255;-85
2021/05/02 04:26:06;;;;;;;35.87;27.20;;;;;;;;;;5057350;28;20172;-85
2021/05/02 04:28:31;;;;;;;23.00;20.13;;;;;;;;;;5057365;28;20285;-85
2021/05/02 04:30:56;;;;;;;21.33;17.80;;;;;;;;;;5057342;28;20172;-85
2021/05/02 04:33:22;;;;;;;19.10;16.83;;;;;;;;;;5056717;28;20196;-85
2021/05/02 04:35:47;;;;;;;20.43;16.90;;;;;;;;;;5056653;28;20175;-85
2021/05/02 04:38:13;;;;;;;18.63;16.70;;;;;;;;;;5057232;28;20516;-85
2021/05/02 04:40:38;;;;;;;20.00;15.87;;;;;;;;;;5057152;28;20614;-85
2021/05/02 04:43:03;;;;;;;20.60;17.30;;;;;;;;;;5056533;28;20311;-85
2021/05/02 04:45:28;;;;;;;20.17;17.67;;;;;;;;;;5056261;28;20302;-85
2021/05/02 04:47:54;;;;;;;18.47;15.67;;;;;;;;;;5056439;28;20245;-85
2021/05/02 04:50:20;;;;;;;20.13;17.93;;;;;;;;;;5056378;28;20236;-85
2021/05/02 04:52:45;;;;;;;18.77;16.07;;;;;;;;;;5056707;28;20210;-85
2021/05/02 04:55:11;;;;;;;20.23;18.00;;;;;;;;;;5056339;28;20259;-85
2021/05/02 04:57:36;;;;;;;20.53;16.37;;;;;;;;;;5055936;28;20178;-85
2021/05/02 05:00:02;;;;;;;22.00;16.43;;;;;;;;;;5055985;28;20263;-84
2021/05/02 05:02:28;;;;;;;20.20;15.90;;;;;;;;;;5056465;28;20255;-84
2021/05/02 05:04:53;;;;;;;19.87;15.70;;;;;;;;;;5055843;28;20172;-84
2021/05/02 05:07:19;;;;;;;21.33;17.93;;;;;;;;;;5056520;28;20183;-84
2021/05/02 05:09:44;;;;;;;24.40;17.67;;;;;;;;;;5056362;28;20172;-85
2021/05/02 05:12:09;;;;;;;25.33;19.73;;;;;;;;;;5056001;28;20212;-84
2021/05/02 05:14:35;;;;;;;26.03;20.87;;;;;;;;;;5055697;28;20203;-85
2021/05/02 05:17:00;;;;;;;20.53;17.50;;;;;;;;;;5055621;28;20624;-85
2021/05/02 05:19:25;;;;;;;23.63;19.63;;;;;;;;;;5056292;28;20175;-85
2021/05/02 05:21:51;;;;;;;26.10;22.10;;;;;;;;;;5056070;28;20228;-85
2021/05/02 05:24:16;;;;;;;25.37;21.00;;;;;;;;;;5055714;28;20171;-85
2021/05/02 05:26:41;;;;;;;24.67;20.63;;;;;;;;;;5055744;28;20171;-85
2021/05/02 05:29:07;;;;;;;21.80;17.67;;;;;;;;;;5055991;28;20213;-85
2021/05/02 05:31:32;;;;;;;23.37;20.83;;;;;;;;;;5055543;28;20241;-85
2021/05/02 05:33:57;;;;;;;24.90;22.30;;;;;;;;;;5054904;28;20203;-85
2021/05/02 05:36:23;;;;;;;27.57;24.27;;;;;;;;;;5055259;28;20538;-85
2021/05/02 05:38:48;;;;;;;27.97;22.97;;;;;;;;;;5055491;28;20629;-85
2021/05/02 05:41:14;;;;;;;30.70;25.27;;;;;;;;;;5055433;28;20168;-85
2021/05/02 05:43:39;;;;;;;30.00;25.23;;;;;;;;;;5055122;28;20626;-86
2021/05/02 05:46:04;;;;;;;26.37;22.23;;;;;;;;;;5055227;28;20203;-86
2021/05/02 05:48:31;;;;;;;26.73;23.53;;;;;;;;;;5054935;28;20664;-86
2021/05/02 05:50:56;;;;;;;27.20;23.53;;;;;;;;;;5055210;28;20191;-86
2021/05/02 05:53:22;;;;;;;24.00;21.40;;;;;;;;;;5055116;28;20290;-86
2021/05/02 05:55:47;;;;;;;23.77;21.13;;;;;;;;;;5054837;28;20167;-86
2021/05/02 05:58:12;;;;;;;18.73;16.13;;;;;;;;;;5055730;28;20206;-86
2021/05/02 06:00:38;;;;;;;19.63;17.30;;;;;;;;;;5054896;28;20168;-86
2021/05/02 06:03:03;;;;;;;18.83;16.67;;;;;;;;;;5055323;28;20172;-85
2021/05/02 06:05:28;;;;;;;21.00;18.13;;;;;;;;;;5055483;28;20164;-85
2021/05/02 06:07:54;;;;;;;20.53;18.40;;;;;;;;;;5054872;28;20603;-86
2021/05/02 06:10:19;;;;;;;22.90;18.50;;;;;;;;;;5054839;28;20178;-85
2021/05/02 06:12:44;;;;;;;20.67;16.90;;;;;;;;;;5055065;28;20199;-86
2021/05/02 06:15:11;;;;;;;21.40;18.60;;;;;;;;;;5054772;28;20192;-85
2021/05/02 06:17:36;;;;;;;22.90;20.13;;;;;;;;;;5054678;28;20172;-86
2021/05/02 06:20:02;;;;;;;19.53;17.43;;;;;;;;;;5054734;28;20167;-86
2021/05/02 06:22:28;;;;;;;21.47;19.17;;;;;;;;;;5054785;28;20607;-86
2021/05/02 06:24:53;;;;;;;23.37;20.13;;;;;;;;;;5054639;28;20164;-86
2021/05/02 06:27:18;;;;;;;22.70;18.97;;;;;;;;;;5054542;28;20176;-86
2021/05/02 06:29:44;;;;;;;24.03;20.43;;;;;;;;;;5054155;28;20172;-85
2021/05/02 06:32:09;;;;;;;23.27;20.77;;;;;;;;;;5054719;28;20364;-85
2021/05/02 06:34:34;;;;;;;21.53;19.10;;;;;;;;;;5054406;28;20294;-85
2021/05/02 06:37:00;;;;;;;24.00;18.10;;;;;;;;;;5054415;28;20537;-85
2021/05/02 06:39:25;;;;;;;23.30;20.80;;;;;;;;;;5054455;28;20168;-85
2021/05/02 06:41:51;;;;;;;24.27;20.57;;;;;;;;;;5054364;28;20172;-85
2021/05/02 06:44:16;;;;;;;23.03;20.43;;;;;;;;;;5054382;28;20176;-86
2021/05/02 06:46:41;;;;;;;24.00;21.27;;;;;;;;;;5053239;28;20259;-86
2021/05/02 06:49:07;;;;;;;23.07;18.63;;;;;;;;;;5054164;28;20673;-86
2021/05/02 06:51:33;;;;;;;22.00;19.70;;;;;;;;;;5047783;28;20211;-86
2021/05/02 06:53:58;;;;;;;20.30;16.87;;;;;;;;;;5037173;28;20180;-86
2021/05/02 06:56:24;;;;;;;21.07;18.87;;;;;;;;;;5042567;28;20214;-86
2021/05/02 06:58:53;;;;;;;21.43;19.13;;;;;;;;;;5054196;28;20180;-86
2021/05/02 07:01:19;;;;;;;23.13;19.87;;;;;;;;;;5054047;28;20267;-86
2021/05/02 07:03:44;;;;;;;19.43;17.33;;;;;;;;;;5053620;28;20594;-86
2021/05/02 07:06:09;;;;;;;19.73;17.30;;;;;;;;;;5053747;28;20262;-86
2021/05/02 07:08:35;;;;;;;19.40;15.83;;;;;;;;;;5053586;28;20168;-86
2021/05/02 07:11:01;;;;;;;21.40;19.10;;;;;;;;;;5054351;28;20195;-86
2021/05/02 07:13:28;;;;;;;20.87;17.93;;;;;;;;;;5054395;28;20240;-86
2021/05/02 07:15:54;;;;;;;19.63;17.33;;;;;;;;;;5053838;28;20262;-86
2021/05/02 07:18:19;;;;;;;21.73;19.43;;;;;;;;;;5051867;28;20266;-86
2021/05/02 07:20:45;;;;;;;22.97;19.73;;;;;;;;;;5053541;28;20615;-86
2021/05/02 07:23:10;;;;;;;20.13;17.93;;;;;;;;;;5053936;28;20176;-85
2021/05/02 07:25:36;;;;;;;20.73;17.10;;;;;;;;;;5053793;28;20222;-85
2021/05/02 07:28:01;;;;;;;24.27;19.67;;;;;;;;;;5051912;28;20168;-87
2021/05/02 07:30:26;;;;;;;21.03;18.73;;;;;;;;;;5053388;28;20172;-85
2021/05/02 07:32:52;;;;;;;23.13;20.43;;;;;;;;;;5052135;28;20286;-87
2021/05/02 07:35:17;;;;;;;23.00;20.50;;;;;;;;;;5054013;28;20496;-87
2021/05/02 07:37:42;;;;;;;26.90;20.57;;;;;;;;;;5053912;28;20197;-85
2021/05/02 07:40:08;;;;;;;22.53;18.97;;;;;;;;;;5053614;28;20225;-87
2021/05/02 07:42:34;;;;;;;23.53;21.07;;;;;;;;;;5053779;28;20171;-87
2021/05/02 07:44:59;;;;;;;26.97;21.97;;;;;;;;;;5053734;28;20179;-87
2021/05/02 07:47:25;;;;;;;23.37;19.40;;;;;;;;;;5053456;28;20512;-88
2021/05/02 07:49:50;;;;;;;23.83;19.77;;;;;;;;;;5051316;28;20254;-87
2021/05/02 07:52:25;;;;;;;25.50;22.77;;;;;;;;;;5052419;28;20203;-86
2021/05/02 07:54:50;;;;;;;26.33;22.80;;;;;;;;;;5053777;28;20201;-86
2021/05/02 07:57:15;;;;;;;30.77;26.27;;;;;;;;;;5055374;28;20207;-86
2021/05/02 07:59:41;;;;;;;24.57;21.93;;;;;;;;;;5057600;28;20179;-86
2021/05/02 08:02:09;;;;;;;30.50;24.90;;;;;;;;;;5056993;28;20254;-87
2021/05/02 08:04:40;;;;;;;26.20;23.50;;;;;;;;;;5057149;28;20692;-88
2021/05/02 08:07:06;;;;;;;26.23;23.33;;;;;;;;;;5056831;28;20530;-87
2021/05/02 08:09:32;;;;;;;21.93;17.80;;;;;;;;;;5056815;28;20180;-88
2021/05/02 08:11:57;;;;;;;26.37;22.37;;;;;;;;;;5056705;28;20200;-88
2021/05/02 08:14:22;;;;;;;27.23;23.40;;;;;;;;;;5056471;28;20184;-87
2021/05/02 08:16:48;;;;;;;26.43;21.03;;;;;;;;;;5057269;28;20190;-85
2021/05/02 08:19:13;;;;;;;26.30;22.53;;;;;;;;;;5056132;28;20565;-85
2021/05/02 08:21:38;;;;;;;26.07;21.73;;;;;;;;;;5056928;28;20180;-85
2021/05/02 08:24:04;;;;;;;27.57;23.17;;;;;;;;;;5056628;28;20193;-88
2021/05/02 08:26:29;;;;;;;28.40;22.63;;;;;;;;;;5055495;28;20190;-88
2021/05/02 08:28:55;;;;;;;27.53;23.87;;;;;;;;;;5056359;28;20175;-87
2021/05/02 08:31:20;;;;;;;27.13;23.60;;;;;;;;;;5056695;28;20180;-87
2021/05/02 08:33:45;;;;;;;23.40;19.93;;;;;;;;;;5056862;28;20637;-88
2021/05/02 08:36:11;;;;;;;27.13;23.63;;;;;;;;;;5055170;28;20572;-87
2021/05/02 08:38:36;;;;;;;30.27;24.53;;;;;;;;;;5056510;28;20164;-88
2021/05/02 08:41:03;;;;;;;29.63;24.70;;;;;;;;;;5056247;28;20164;-88
2021/05/02 08:43:29;;;;;;;30.47;24.63;;;;;;;;;;5056086;28;20183;-87
2021/05/02 08:45:54;;;;;;;29.10;24.30;;;;;;;;;;5056143;28;20530;-87
2021/05/02 08:48:22;;;;;;;26.93;23.03;;;;;;;;;;5056171;28;20168;-88
2021/05/02 08:50:49;;;;;;;28.73;24.07;;;;;;;;;;5056568;28;20231;-87
2021/05/02 08:53:15;;;;;;;29.00;23.67;;;;;;;;;;5056352;28;20558;-87
2021/05/02 08:55:42;;;;;;;26.80;22.83;;;;;;;;;;5055834;28;20184;-88
2021/05/02 08:58:13;;;;;;;22.57;20.00;;;;;;;;;;5054903;28;20172;-87
2021/05/02 09:00:38;;;;;;;28.80;23.93;;;;;;;;;;5055913;28;20167;-88
2021/05/02 09:03:03;;;;;;;26.67;21.17;;;;;;;;;;5055974;28;20168;-88
2021/05/02 09:05:41;;;;;;;22.70;19.10;;;;;;;;;;5056462;28;20171;-88
2021/05/02 09:08:06;;;;;;;24.77;21.60;;;;;;;;;;5055361;28;20159;-87
2021/05/02 09:10:33;;;;;;;25.23;21.07;;;;;;;;;;5038509;28;20631;-87
2021/05/02 09:12:59;;;;;;;23.97;19.63;;;;;;;;;;5055762;28;20200;-87
2021/05/02 09:15:24;;;;;;;22.13;18.37;;;;;;;;;;5056138;28;20171;-88
2021/05/02 09:17:50;;;;;;;25.37;19.57;;;;;;;;;;5055288;28;20188;-88
2021/05/02 09:20:35;;;;;;;27.50;23.23;;;;;;;;;;5056184;28;20164;-88
2021/05/02 09:23:01;;;;;;;22.83;18.73;;;;;;;;;;5055683;28;20199;-88
2021/05/02 09:25:26;;;;;;;26.27;23.43;;;;;;;;;;5055514;28;20222;-87
2021/05/02 09:27:52;;;;;;;27.10;23.97;;;;;;;;;;5055728;28;20206;-87
2021/05/02 09:30:19;;;;;;;28.83;25.83;;;;;;;;;;5055656;28;20168;-88
2021/05/02 09:32:45;;;;;;;29.13;24.80;;;;;;;;;;5054126;28;20215;-87
2021/05/02 09:35:23;;;;;;;28.43;25.27;;;;;;;;;;5055841;28;20226;-87
2021/05/02 09:37:48;;;;;;;30.50;24.30;;;;;;;;;;5055986;28;20507;-87
2021/05/02 09:40:16;;;;;;;26.13;22.70;;;;;;;;;;5055569;28;20166;-87
2021/05/02 09:42:48;;;;;;;28.40;23.97;;;;;;;;;;5055006;28;20176;-86
2021/05/02 09:45:13;;;;;;;26.07;23.00;;;;;;;;;;5057494;28;20184;-87
2021/05/02 09:47:41;;;;;;;27.97;20.93;;;;;;;;;;5075528;28;20163;-87
2021/05/02 09:50:23;;;;;;;27.80;24.20;;;;;;;;;;5075287;28;20681;-87
2021/05/02 09:53:06;;;;;;;27.23;24.00;;;;;;;;;;5075758;28;20187;-87
2021/05/02 09:55:31;;;;;;;32.30;27.73;;;;;;;;;;5075396;28;20152;-88
2021/05/02 09:57:58;;;;;;;35.87;32.07;;;;;;;;;;5074792;28;20520;-88
2021/05/02 10:00:27;;;;;;;37.57;33.77;;;;;;;;;;5075312;28;20175;-88
2021/05/02 10:02:53;;;;;;;30.17;21.17;;;;;;;;;;5074932;28;20171;-87
2021/05/02 10:05:18;;;;;;;27.97;24.47;;;;;;;;;;5075697;28;20182;-86
2021/05/02 10:07:44;;;;;;;32.77;28.40;;;;;;;;;;5074565;28;20637;-87
2021/05/02 10:10:09;;;;;;;28.53;25.53;;;;;;;;;;5060524;28;20179;-86
2021/05/02 10:12:40;;;;;;;29.03;26.03;;;;;;;;;;5054195;28;20294;-87
2021/05/02 10:15:05;;;;;;;34.40;28.33;;;;;;;;;;5055212;28;20549;-87
2021/05/02 10:17:31;;;;;;;36.13;30.93;;;;;;;;;;5053401;28;20176;-87
2021/05/02 10:19:56;;;;;;;36.60;32.77;;;;;;;;;;5054166;28;20181;-88
2021/05/02 10:22:21;;;;;;;44.07;36.87;;;;;;;;;;5053647;28;20175;-87
2021/05/02 10:24:47;;;;;;;35.13;29.73;;;;;;;;;;5054445;28;20249;-87
2021/05/02 10:27:13;;;;;;;36.13;32.33;;;;;;;;;;5054547;28;20164;-88
2021/05/02 10:29:42;;;;;;;31.87;28.57;;;;;;;;;;5054712;28;20171;-87
2021/05/02 10:32:10;;;;;;;37.20;30.50;;;;;;;;;;5054293;28;20199;-87
2021/05/02 10:34:37;;;;;;;37.83;32.23;;;;;;;;;;5055015;28;20175;-87
2021/05/02 10:37:23;;;;;;;42.13;36.90;;;;;;;;;;5054539;28;20184;-86
2021/05/02 10:40:15;;;;;;;38.77;32.73;;;;;;;;;;5047790;28;20639;-86
2021/05/02 10:42:42;;;;;;;34.50;30.80;;;;;;;;;;5053527;28;20642;-87
2021/05/02 10:45:26;;;;;;;35.70;29.87;;;;;;;;;;5043309;28;20231;-87
2021/05/02 10:47:53;;;;;;;50.70;38.43;;;;;;;;;;5044426;28;20245;-86
2021/05/02 10:50:27;;;;;;;42.37;34.80;;;;;;;;;;5044713;28;20310;-86
2021/05/02 10:53:15;;;;;;;44.87;34.53;;;;;;;;;;5043107;28;20211;-87
2021/05/02 10:56:02;;;;;;;45.53;34.93;;;;;;;;;;5043653;28;20184;-87
2021/05/02 10:58:29;;;;;;;52.80;39.63;;;;;;;;;;5046645;28;20172;-87
2021/05/02 11:01:03;;;;;;;35.27;29.60;;;;;;;;;;5041297;28;20180;-88
2021/05/02 11:03:41;;;;;;;44.30;34.80;;;;;;;;;;5044600;28;20202;-86
2021/05/02 11:06:06;;;;;;;37.67;32.20;;;;;;;;;;5044605;28;20213;-87
2021/05/02 11:08:51;;;;;;;56.73;40.40;;;;;;;;;;5044307;28;20177;-87
2021/05/02 11:11:29;;;;;;;50.23;39.77;;;;;;;;;;5044820;28;20192;-87
2021/05/02 11:14:21;;;;;;;48.90;37.03;;;;;;;;;;5043813;28;20655;-87
2021/05/02 11:16:50;;;;;;;42.33;32.93;;;;;;;;;;5043866;28;20167;-86
2021/05/02 11:19:22;;;;;;;42.83;31.43;;;;;;;;;;5044070;28;20198;-86
2021/05/02 11:21:48;;;;;;;31.90;26.47;;;;;;;;;;5043594;28;20260;-87
2021/05/02 11:24:23;;;;;;;40.90;32.80;;;;;;;;;;5042407;28;20203;-87
2021/05/02 11:30:13;;;;;;;37.67;30.83;;;;;;;;;;5045456;28;20177;-87
2021/05/02 11:32:40;;;;;;;36.13;29.57;;;;;;;;;;5047342;28;20222;-88
2021/05/02 11:35:05;;;;;;;37.33;28.63;;;;;;;;;;5047726;28;20167;-87
2021/05/02 11:37:50;;;;;;;31.37;25.20;;;;;;;;;;5040672;28;20515;-86
2021/05/02 11:40:20;;;;;;;35.17;29.47;;;;;;;;;;5037560;28;20518;-86
2021/05/02 11:42:53;;;;;;;27.43;23.60;;;;;;;;;;5038149;28;20169;-87
2021/05/02 11:45:20;;;;;;;33.50;26.07;;;;;;;;;;5036478;28;20172;-87
2021/05/02 11:47:45;;;;;;;28.60;25.20;;;;;;;;;;5037725;28;20153;-88
2021/05/02 11:50:11;;;;;;;26.33;23.67;;;;;;;;;;5023147;28;20261;-89
2021/05/02 11:52:45;;;;;;;29.77;24.27;;;;;;;;;;5047425;28;20247;-87
2021/05/02 11:58:04;;;;;;;28.20;25.07;;;;;;;;;;5037557;28;20173;-88
2021/05/02 12:00:32;;;;;;;36.20;29.10;;;;;;;;;;5036632;28;20177;-87
2021/05/02 12:02:58;;;;;;;30.23;27.07;;;;;;;;;;5037957;28;20175;-87
2021/05/02 12:05:23;;;;;;;28.70;25.67;;;;;;;;;;5037419;28;20172;-89
2021/05/02 12:08:05;;;;;;;27.47;23.30;;;;;;;;;;5037646;28;20251;-89
2021/05/02 12:10:30;;;;;;;29.53;26.33;;;;;;;;;;5036928;28;20164;-84
2021/05/02 12:12:56;;;;;;;32.50;28.97;;;;;;;;;;5036903;28;20550;-84
2021/05/02 12:15:21;;;;;;;33.20;29.70;;;;;;;;;;5037850;28;20603;-83
2021/05/02 12:17:53;;;;;;;33.13;28.20;;;;;;;;;;5052110;28;20644;-83
2021/05/02 12:20:22;;;;;;;26.57;23.63;;;;;;;;;;5056667;28;20172;-83
2021/05/02 12:22:51;;;;;;;24.23;21.63;;;;;;;;;;5056896;28;20176;-84
2021/05/02 12:25:17;;;;;;;27.73;23.77;;;;;;;;;;5053061;28;20177;-83
2021/05/02 12:27:55;;;;;;;23.70;21.23;;;;;;;;;;5051795;28;20580;-84
2021/05/02 12:30:20;;;;;;;28.80;24.57;;;;;;;;;;5056397;28;20562;-83
2021/05/02 12:32:46;;;;;;;25.77;23.00;;;;;;;;;;5057222;28;20245;-84
2021/05/02 12:35:11;;;;;;;22.83;20.40;;;;;;;;;;5056785;28;20521;-83
2021/05/02 12:37:36;;;;;;;23.00;20.60;;;;;;;;;;5057264;28;20514;-84
2021/05/02 12:40:06;;;;;;;18.33;16.53;;;;;;;;;;5056365;28;20176;-83
2021/05/02 12:42:32;;;;;;;19.00;16.93;;;;;;;;;;5056482;28;20187;-84
2021/05/02 12:44:57;;;;;;;19.80;17.87;;;;;;;;;;5055959;28;20614;-84
2021/05/02 12:47:32;;;;;;;18.27;16.47;;;;;;;;;;5055359;28;20190;-84
2021/05/02 12:49:58;;;;;;;18.30;16.50;;;;;;;;;;5056034;28;20194;-86
2021/05/02 12:52:32;;;;;;;14.90;13.00;;;;;;;;;;5055040;28;20649;-84
2021/05/02 12:55:16;;;;;;;16.70;15.03;;;;;;;;;;5056656;28;20172;-83
2021/05/02 12:57:42;;;;;;;12.03;10.93;;;;;;;;;;5055850;28;20604;-84
2021/05/02 13:00:12;;;;;;;9.33;8.43;;;;;;;;;;5056117;28;20195;-84
2021/05/02 13:02:44;;;;;;;10.00;7.67;;;;;;;;;;5049946;28;20180;-85
2021/05/02 13:05:18;;;;;;;10.30;9.30;;;;;;;;;;5035989;28;20161;-85
2021/05/02 13:07:44;;;;;;;7.97;7.20;;;;;;;;;;5036169;28;20267;-85
2021/05/02 13:10:21;;;;;;;7.43;6.83;;;;;;;;;;5048204;28;20203;-85
2021/05/02 13:12:51;;;;;;;7.23;6.63;;;;;;;;;;5055795;28;20605;-85
2021/05/02 13:15:18;;;;;;;8.50;6.43;;;;;;;;;;5056204;28;20607;-85
2021/05/02 13:18:16;;;;;;;6.60;6.00;;;;;;;;;;5055920;28;20168;-85
2021/05/02 13:20:56;;;;;;;6.47;5.83;;;;;;;;;;5043666;28;20275;-83
2021/05/02 13:23:34;;;;;;;6.63;6.03;;;;;;;;;;5055968;28;20221;-84
2021/05/02 13:26:15;;;;;;;7.17;6.57;;;;;;;;;;5056105;28;20609;-84
2021/05/02 13:28:59;;;;;;;6.37;5.87;;;;;;;;;;5055921;28;20176;-84
2021/05/02 13:31:43;;;;;;;7.10;6.50;;;;;;;;;;5055933;28;20242;-85
2021/05/02 13:34:09;;;;;;;6.87;6.10;;;;;;;;;;5055698;28;20187;-84
2021/05/02 13:36:34;;;;;;;10.30;9.30;;;;;;;;;;5055351;28;20164;-85
2021/05/02 13:39:00;;;;;;;8.60;7.80;;;;;;;;;;5055820;28;20587;-85
2021/05/02 13:41:26;;;;;;;6.60;6.07;;;;;;;;;;5055348;28;20573;-85
2021/05/02 13:44:03;;;;;;;7.17;6.57;;;;;;;;;;5055066;28;20168;-85
2021/05/02 13:46:28;;;;;;;5.93;5.43;;;;;;;;;;5055914;28;20166;-84
2021/05/02 13:48:54;;;;;;;5.87;5.37;;;;;;;;;;5055487;28;20164;-84
2021/05/02 13:51:19;;;;;;;6.17;5.57;;;;;;;;;;5055355;28;20235;-84
2021/05/02 13:53:48;;;;;;;5.60;5.10;;;;;;;;;;5055261;28;20200;-85
2021/05/02 13:56:14;;;;;;;5.30;4.90;;;;;;;;;;5054725;28;20172;-85
2021/05/02 13:58:39;;;;;;;5.70;5.20;;;;;;;;;;5055448;28;20175;-85
2021/05/02 14:01:04;;;;;;;5.00;4.50;;;;;;;;;;5054668;28;20164;-84
2021/05/02 14:03:32;;;;;;;5.20;4.80;;;;;;;;;;5055291;28;20187;-84
2021/05/02 14:05:57;;;;;;;6.30;5.70;;;;;;;;;;5054982;28;20255;-84
2021/05/02 14:08:22;;;;;;;8.50;7.50;;;;;;;;;;5054678;28;20279;-85
2021/05/02 14:10:48;;;;;;;6.57;5.97;;;;;;;;;;5054637;28;20569;-85
2021/05/02 14:13:14;;;;;;;6.60;5.97;;;;;;;;;;5054928;28;20623;-86
2021/05/02 14:15:40;;;;;;;6.93;6.33;;;;;;;;;;5054960;28;20168;-85
2021/05/02 14:18:05;;;;;;;8.27;7.47;;;;;;;;;;5039233;28;20176;-85
2021/05/02 14:20:30;;;;;;;8.40;7.60;;;;;;;;;;5051766;28;20630;-85
2021/05/02 14:22:56;;;;;;;8.10;7.30;;;;;;;;;;5054727;28;20186;-84
2021/05/02 14:25:21;;;;;;;7.80;7.07;;;;;;;;;;5053412;28;20615;-84
2021/05/02 14:27:46;;;;;;;7.33;6.67;;;;;;;;;;5054427;28;20172;-85